sensor_id;sensor_type;location;lat;lon;timestamp;P1;durP1;ratioP1;P2;durP2;ratioP2
15202;SDS011;7702;51.046;5.184;2023-11-21T00:00:21;71.73;;;26.97;;
15202;SDS011;7702;51.046;5.184;2023-11-21T00:02:46;50.17;;;23.83;;
15202;SDS011;7702;51.046;5.184;2023-11-21T00:05:13;50.73;;;23.50;;
15202;SDS011;7702;51.046;5.184;2023-11-21T00:07:40;53.73;;;24.50;;
15202;SDS011;7702;51.046;5.184;2023-11-21T00:10:07;43.50;;;23.33;;
15202;SDS011;7702;51.046;5.184;2023-11-21T00:48:14;34.67;;;19.33;;
15202;SDS011;7702;51.046;5.184;2023-11-21T00:50:40;41.07;;;20.40;;
15202;SDS011;7702;51.046;5.184;2023-11-21T00:53:06;52.43;;;27.90;;
15202;SDS011;7702;51.046;5.184;2023-11-21T00:55:32;43.50;;;21.13;;
15202;SDS011;7702;51.046;5.184;2023-11-21T00:57:58;38.40;;;19.50;;
15202;SDS011;7702;51.046;5.184;2023-11-21T01:00:24;38.60;;;20.60;;
15202;SDS011;7702;51.046;5.184;2023-11-21T01:02:50;40.67;;;19.07;;
15202;SDS011;7702;51.046;5.184;2023-11-21T01:05:16;33.90;;;18.57;;
15202;SDS011;7702;51.046;5.184;2023-11-21T01:07:42;41.83;;;19.43;;
15202;SDS011;7702;51.046;5.184;2023-11-21T01:10:08;39.80;;;19.33;;
15202;SDS011;7702;51.046;5.184;2023-11-21T01:12:35;42.90;;;20.27;;
15202;SDS011;7702;51.046;5.184;2023-11-21T01:15:02;38.40;;;19.20;;
15202;SDS011;7702;51.046;5.184;2023-11-21T01:17:37;42.80;;;20.70;;
15202;SDS011;7702;51.046;5.184;2023-11-21T01:20:03;45.00;;;19.87;;
15202;SDS011;7702;51.046;5.184;2023-11-21T01:22:36;39.57;;;18.80;;
15202;SDS011;7702;51.046;5.184;2023-11-21T01:25:02;37.07;;;18.97;;
15202;SDS011;7702;51.046;5.184;2023-11-21T01:27:33;36.90;;;18.93;;
15202;SDS011;7702;51.046;5.184;2023-11-21T01:29:59;37.33;;;19.37;;
15202;SDS011;7702;51.046;5.184;2023-11-21T01:32:25;37.10;;;18.63;;
15202;SDS011;7702;51.046;5.184;2023-11-21T01:34:51;38.87;;;19.40;;
15202;SDS011;7702;51.046;5.184;2023-11-21T01:37:17;34.50;;;18.23;;
15202;SDS011;7702;51.046;5.184;2023-11-21T01:39:43;36.47;;;18.77;;
15202;SDS011;7702;51.046;5.184;2023-11-21T01:42:09;38.63;;;17.70;;
15202;SDS011;7702;51.046;5.184;2023-11-21T01:44:36;39.23;;;18.63;;
15202;SDS011;7702;51.046;5.184;2023-11-21T01:47:01;36.40;;;19.13;;
15202;SDS011;7702;51.046;5.184;2023-11-21T01:49:30;42.40;;;20.53;;
15202;SDS011;7702;51.046;5.184;2023-11-21T01:51:59;47.80;;;21.73;;
15202;SDS011;7702;51.046;5.184;2023-11-21T01:54:25;36.53;;;18.73;;
15202;SDS011;7702;51.046;5.184;2023-11-21T01:56:51;47.70;;;22.10;;
15202;SDS011;7702;51.046;5.184;2023-11-21T01:59:18;47.63;;;21.87;;
15202;SDS011;7702;51.046;5.184;2023-11-21T02:01:48;49.40;;;21.93;;
15202;SDS011;7702;51.046;5.184;2023-11-21T02:04:15;52.10;;;21.30;;
15202;SDS011;7702;51.046;5.184;2023-11-21T02:06:41;57.67;;;22.97;;
15202;SDS011;7702;51.046;5.184;2023-11-21T02:09:06;53.07;;;22.10;;
15202;SDS011;7702;51.046;5.184;2023-11-21T02:11:33;56.53;;;22.37;;
15202;SDS011;7702;51.046;5.184;2023-11-21T02:14:00;54.13;;;22.47;;
15202;SDS011;7702;51.046;5.184;2023-11-21T02:16:26;54.53;;;23.73;;
15202;SDS011;7702;51.046;5.184;2023-11-21T02:18:52;54.67;;;21.80;;
15202;SDS011;7702;51.046;5.184;2023-11-21T02:21:18;48.90;;;22.33;;
15202;SDS011;7702;51.046;5.184;2023-11-21T02:23:44;68.20;;;23.50;;
15202;SDS011;7702;51.046;5.184;2023-11-21T02:26:12;76.37;;;26.43;;
15202;SDS011;7702;51.046;5.184;2023-11-21T02:28:38;93.37;;;26.30;;
15202;SDS011;7702;51.046;5.184;2023-11-21T02:31:05;91.17;;;27.50;;
15202;SDS011;7702;51.046;5.184;2023-11-21T02:33:32;86.83;;;26.23;;
15202;SDS011;7702;51.046;5.184;2023-11-21T02:35:59;102.13;;;26.27;;
15202;SDS011;7702;51.046;5.184;2023-11-21T02:38:25;96.80;;;26.60;;
15202;SDS011;7702;51.046;5.184;2023-11-21T02:40:51;114.60;;;26.27;;
15202;SDS011;7702;51.046;5.184;2023-11-21T02:43:17;208.47;;;32.40;;
15202;SDS011;7702;51.046;5.184;2023-11-21T02:45:43;142.83;;;30.67;;
15202;SDS011;7702;51.046;5.184;2023-11-21T02:48:08;98.63;;;25.70;;
15202;SDS011;7702;51.046;5.184;2023-11-21T02:50:34;142.93;;;27.63;;
15202;SDS011;7702;51.046;5.184;2023-11-21T02:53:00;168.97;;;30.20;;
15202;SDS011;7702;51.046;5.184;2023-11-21T02:55:27;215.57;;;33.83;;
15202;SDS011;7702;51.046;5.184;2023-11-21T02:57:53;125.33;;;26.80;;
15202;SDS011;7702;51.046;5.184;2023-11-21T03:00:21;157.53;;;28.67;;
15202;SDS011;7702;51.046;5.184;2023-11-21T03:02:49;147.80;;;28.23;;
15202;SDS011;7702;51.046;5.184;2023-11-21T03:05:15;87.80;;;24.83;;
15202;SDS011;7702;51.046;5.184;2023-11-21T03:07:40;240.23;;;35.63;;
15202;SDS011;7702;51.046;5.184;2023-11-21T03:10:07;171.37;;;30.87;;
15202;SDS011;7702;51.046;5.184;2023-11-21T03:12:38;144.40;;;28.63;;
15202;SDS011;7702;51.046;5.184;2023-11-21T03:15:05;161.57;;;29.73;;
15202;SDS011;7702;51.046;5.184;2023-11-21T03:17:31;150.80;;;28.87;;
15202;SDS011;7702;51.046;5.184;2023-11-21T03:19:59;124.57;;;27.37;;
15202;SDS011;7702;51.046;5.184;2023-11-21T03:22:25;92.80;;;23.37;;
15202;SDS011;7702;51.046;5.184;2023-11-21T03:24:51;130.03;;;25.40;;
15202;SDS011;7702;51.046;5.184;2023-11-21T03:27:17;119.03;;;28.50;;
15202;SDS011;7702;51.046;5.184;2023-11-21T03:29:43;238.60;;;34.37;;
15202;SDS011;7702;51.046;5.184;2023-11-21T03:32:10;62.40;;;20.67;;
15202;SDS011;7702;51.046;5.184;2023-11-21T03:34:42;124.30;;;26.27;;
15202;SDS011;7702;51.046;5.184;2023-11-21T03:37:22;185.87;;;28.97;;
15202;SDS011;7702;51.046;5.184;2023-11-21T03:39:48;166.40;;;30.30;;
15202;SDS011;7702;51.046;5.184;2023-11-21T03:42:14;80.73;;;21.07;;
15202;SDS011;7702;51.046;5.184;2023-11-21T03:44:40;215.90;;;31.20;;
15202;SDS011;7702;51.046;5.184;2023-11-21T03:47:05;176.80;;;29.17;;
15202;SDS011;7702;51.046;5.184;2023-11-21T03:49:31;103.97;;;23.37;;
15202;SDS011;7702;51.046;5.184;2023-11-21T03:51:56;156.67;;;27.33;;
15202;SDS011;7702;51.046;5.184;2023-11-21T03:54:22;135.03;;;26.93;;
15202;SDS011;7702;51.046;5.184;2023-11-21T03:56:48;181.57;;;28.13;;
15202;SDS011;7702;51.046;5.184;2023-11-21T03:59:14;112.17;;;22.83;;
15202;SDS011;7702;51.046;5.184;2023-11-21T04:01:39;128.27;;;25.57;;
15202;SDS011;7702;51.046;5.184;2023-11-21T04:04:05;144.90;;;24.13;;
15202;SDS011;7702;51.046;5.184;2023-11-21T04:06:30;198.93;;;27.57;;
15202;SDS011;7702;51.046;5.184;2023-11-21T04:08:57;125.33;;;24.10;;
15202;SDS011;7702;51.046;5.184;2023-11-21T04:11:23;95.33;;;20.63;;
15202;SDS011;7702;51.046;5.184;2023-11-21T04:13:50;90.23;;;21.23;;
15202;SDS011;7702;51.046;5.184;2023-11-21T04:16:15;81.50;;;19.77;;
15202;SDS011;7702;51.046;5.184;2023-11-21T04:18:41;118.27;;;23.67;;
15202;SDS011;7702;51.046;5.184;2023-11-21T04:21:07;173.03;;;26.93;;
15202;SDS011;7702;51.046;5.184;2023-11-21T04:23:33;87.80;;;22.27;;
15202;SDS011;7702;51.046;5.184;2023-11-21T04:26:00;107.00;;;20.17;;
15202;SDS011;7702;51.046;5.184;2023-11-21T04:28:27;147.10;;;25.73;;
15202;SDS011;7702;51.046;5.184;2023-11-21T04:30:53;114.17;;;22.93;;
15202;SDS011;7702;51.046;5.184;2023-11-21T04:33:18;112.10;;;23.80;;
15202;SDS011;7702;51.046;5.184;2023-11-21T04:35:44;93.50;;;23.17;;
15202;SDS011;7702;51.046;5.184;2023-11-21T04:38:11;88.60;;;21.63;;
15202;SDS011;7702;51.046;5.184;2023-11-21T04:40:36;165.07;;;27.67;;
15202;SDS011;7702;51.046;5.184;2023-11-21T04:43:02;59.93;;;20.47;;
15202;SDS011;7702;51.046;5.184;2023-11-21T04:45:29;188.40;;;28.67;;
15202;SDS011;7702;51.046;5.184;2023-11-21T04:47:55;120.70;;;24.73;;
15202;SDS011;7702;51.046;5.184;2023-11-21T04:50:21;126.63;;;26.93;;
15202;SDS011;7702;51.046;5.184;2023-11-21T04:52:46;124.93;;;28.23;;
15202;SDS011;7702;51.046;5.184;2023-11-21T04:55:13;164.63;;;27.00;;
15202;SDS011;7702;51.046;5.184;2023-11-21T04:57:40;141.97;;;26.93;;
15202;SDS011;7702;51.046;5.184;2023-11-21T05:00:06;101.60;;;25.43;;
15202;SDS011;7702;51.046;5.184;2023-11-21T05:02:33;204.97;;;30.37;;
15202;SDS011;7702;51.046;5.184;2023-11-21T05:05:00;100.87;;;27.10;;
15202;SDS011;7702;51.046;5.184;2023-11-21T05:07:26;67.27;;;22.60;;
15202;SDS011;7702;51.046;5.184;2023-11-21T05:09:54;125.93;;;26.17;;
15202;SDS011;7702;51.046;5.184;2023-11-21T05:12:21;140.70;;;29.43;;
15202;SDS011;7702;51.046;5.184;2023-11-21T05:14:50;89.43;;;23.23;;
15202;SDS011;7702;51.046;5.184;2023-11-21T05:17:16;106.97;;;26.33;;
15202;SDS011;7702;51.046;5.184;2023-11-21T05:19:42;151.93;;;28.77;;
15202;SDS011;7702;51.046;5.184;2023-11-21T05:22:10;103.93;;;25.60;;
15202;SDS011;7702;51.046;5.184;2023-11-21T05:24:37;136.67;;;28.57;;
15202;SDS011;7702;51.046;5.184;2023-11-21T05:27:04;135.43;;;30.67;;
15202;SDS011;7702;51.046;5.184;2023-11-21T05:29:29;98.33;;;27.47;;
15202;SDS011;7702;51.046;5.184;2023-11-21T05:31:55;122.23;;;29.63;;
15202;SDS011;7702;51.046;5.184;2023-11-21T05:34:21;61.97;;;23.47;;
15202;SDS011;7702;51.046;5.184;2023-11-21T05:36:49;88.47;;;26.60;;
15202;SDS011;7702;51.046;5.184;2023-11-21T05:39:15;83.73;;;27.00;;
15202;SDS011;7702;51.046;5.184;2023-11-21T05:41:42;106.60;;;27.33;;
15202;SDS011;7702;51.046;5.184;2023-11-21T05:44:08;67.03;;;24.50;;
15202;SDS011;7702;51.046;5.184;2023-11-21T05:46:34;79.97;;;25.67;;
15202;SDS011;7702;51.046;5.184;2023-11-21T05:49:00;77.40;;;25.60;;
15202;SDS011;7702;51.046;5.184;2023-11-21T05:51:25;78.50;;;25.37;;
15202;SDS011;7702;51.046;5.184;2023-11-21T05:53:51;83.17;;;26.90;;
15202;SDS011;7702;51.046;5.184;2023-11-21T05:56:16;93.87;;;25.90;;
15202;SDS011;7702;51.046;5.184;2023-11-21T05:58:44;86.00;;;26.47;;
15202;SDS011;7702;51.046;5.184;2023-11-21T06:01:09;98.93;;;30.10;;
15202;SDS011;7702;51.046;5.184;2023-11-21T06:03:38;73.47;;;26.87;;
15202;SDS011;7702;51.046;5.184;2023-11-21T06:06:04;105.87;;;29.23;;
15202;SDS011;7702;51.046;5.184;2023-11-21T06:08:30;116.87;;;29.00;;
15202;SDS011;7702;51.046;5.184;2023-11-21T06:10:55;99.50;;;28.57;;
15202;SDS011;7702;51.046;5.184;2023-11-21T06:13:21;82.40;;;28.93;;
15202;SDS011;7702;51.046;5.184;2023-11-21T06:15:49;85.43;;;27.33;;
15202;SDS011;7702;51.046;5.184;2023-11-21T06:18:15;88.50;;;27.30;;
15202;SDS011;7702;51.046;5.184;2023-11-21T06:20:44;79.53;;;27.70;;
15202;SDS011;7702;51.046;5.184;2023-11-21T06:23:10;96.23;;;30.03;;
15202;SDS011;7702;51.046;5.184;2023-11-21T06:25:36;86.90;;;28.27;;
15202;SDS011;7702;51.046;5.184;2023-11-21T06:28:02;103.07;;;29.17;;
15202;SDS011;7702;51.046;5.184;2023-11-21T06:30:27;81.37;;;27.93;;
15202;SDS011;7702;51.046;5.184;2023-11-21T06:32:54;93.10;;;28.50;;
15202;SDS011;7702;51.046;5.184;2023-11-21T06:35:21;95.30;;;30.13;;
15202;SDS011;7702;51.046;5.184;2023-11-21T06:37:46;75.53;;;29.23;;
15202;SDS011;7702;51.046;5.184;2023-11-21T06:40:13;113.63;;;31.10;;
15202;SDS011;7702;51.046;5.184;2023-11-21T06:42:43;79.37;;;28.23;;
15202;SDS011;7702;51.046;5.184;2023-11-21T06:45:09;73.63;;;29.33;;
15202;SDS011;7702;51.046;5.184;2023-11-21T06:47:36;93.60;;;29.47;;
15202;SDS011;7702;51.046;5.184;2023-11-21T06:50:03;82.77;;;31.57;;
15202;SDS011;7702;51.046;5.184;2023-11-21T06:52:29;97.27;;;29.10;;
15202;SDS011;7702;51.046;5.184;2023-11-21T06:54:55;90.17;;;30.17;;
15202;SDS011;7702;51.046;5.184;2023-11-21T06:57:22;89.90;;;30.37;;
15202;SDS011;7702;51.046;5.184;2023-11-21T06:59:48;71.23;;;28.63;;
15202;SDS011;7702;51.046;5.184;2023-11-21T07:02:15;76.63;;;29.73;;
15202;SDS011;7702;51.046;5.184;2023-11-21T07:04:43;91.10;;;30.63;;
15202;SDS011;7702;51.046;5.184;2023-11-21T07:07:12;82.13;;;30.77;;
15202;SDS011;7702;51.046;5.184;2023-11-21T07:09:38;81.63;;;29.97;;
15202;SDS011;7702;51.046;5.184;2023-11-21T07:12:04;87.30;;;30.50;;
15202;SDS011;7702;51.046;5.184;2023-11-21T07:14:32;88.33;;;30.73;;
15202;SDS011;7702;51.046;5.184;2023-11-21T07:16:59;83.27;;;29.23;;
15202;SDS011;7702;51.046;5.184;2023-11-21T07:19:24;81.13;;;29.70;;
15202;SDS011;7702;51.046;5.184;2023-11-21T07:21:50;85.43;;;30.83;;
15202;SDS011;7702;51.046;5.184;2023-11-21T07:24:16;78.07;;;30.47;;
15202;SDS011;7702;51.046;5.184;2023-11-21T07:26:42;79.10;;;30.20;;
15202;SDS011;7702;51.046;5.184;2023-11-21T07:29:08;88.20;;;29.97;;
15202;SDS011;7702;51.046;5.184;2023-11-21T07:31:33;91.80;;;29.83;;
15202;SDS011;7702;51.046;5.184;2023-11-21T07:34:00;94.63;;;33.00;;
15202;SDS011;7702;51.046;5.184;2023-11-21T07:36:25;79.10;;;30.43;;
15202;SDS011;7702;51.046;5.184;2023-11-21T07:38:52;81.53;;;30.37;;
15202;SDS011;7702;51.046;5.184;2023-11-21T07:41:18;81.00;;;30.13;;
15202;SDS011;7702;51.046;5.184;2023-11-21T07:43:44;97.40;;;31.07;;
15202;SDS011;7702;51.046;5.184;2023-11-21T07:46:11;87.17;;;31.33;;
15202;SDS011;7702;51.046;5.184;2023-11-21T07:48:40;71.60;;;29.40;;
15202;SDS011;7702;51.046;5.184;2023-11-21T07:51:07;78.13;;;28.43;;
15202;SDS011;7702;51.046;5.184;2023-11-21T07:53:34;78.03;;;30.63;;
15202;SDS011;7702;51.046;5.184;2023-11-21T07:56:03;80.70;;;31.27;;
15202;SDS011;7702;51.046;5.184;2023-11-21T07:58:30;82.27;;;29.90;;
15202;SDS011;7702;51.046;5.184;2023-11-21T08:00:59;81.33;;;30.37;;
15202;SDS011;7702;51.046;5.184;2023-11-21T08:03:25;68.80;;;29.00;;
15202;SDS011;7702;51.046;5.184;2023-11-21T08:05:51;76.50;;;29.03;;
15202;SDS011;7702;51.046;5.184;2023-11-21T08:08:17;71.70;;;30.37;;
15202;SDS011;7702;51.046;5.184;2023-11-21T08:10:44;69.03;;;29.10;;
15202;SDS011;7702;51.046;5.184;2023-11-21T08:13:13;78.43;;;29.23;;
15202;SDS011;7702;51.046;5.184;2023-11-21T08:15:41;71.80;;;28.13;;
15202;SDS011;7702;51.046;5.184;2023-11-21T08:18:11;67.47;;;29.23;;
15202;SDS011;7702;51.046;5.184;2023-11-21T08:20:38;70.03;;;28.73;;
15202;SDS011;7702;51.046;5.184;2023-11-21T08:23:05;65.90;;;27.10;;
15202;SDS011;7702;51.046;5.184;2023-11-21T08:25:31;69.87;;;26.70;;
15202;SDS011;7702;51.046;5.184;2023-11-21T08:27:59;73.30;;;27.90;;
15202;SDS011;7702;51.046;5.184;2023-11-21T08:30:25;58.10;;;26.40;;
15202;SDS011;7702;51.046;5.184;2023-11-21T08:32:53;57.57;;;26.50;;
15202;SDS011;7702;51.046;5.184;2023-11-21T08:35:18;61.07;;;26.33;;
15202;SDS011;7702;51.046;5.184;2023-11-21T08:37:44;57.57;;;25.77;;
15202;SDS011;7702;51.046;5.184;2023-11-21T08:40:10;63.47;;;26.13;;
15202;SDS011;7702;51.046;5.184;2023-11-21T08:42:41;54.43;;;24.60;;
15202;SDS011;7702;51.046;5.184;2023-11-21T08:45:08;70.23;;;27.47;;
15202;SDS011;7702;51.046;5.184;2023-11-21T08:47:34;65.83;;;27.80;;
15202;SDS011;7702;51.046;5.184;2023-11-21T08:50:02;63.60;;;27.07;;
15202;SDS011;7702;51.046;5.184;2023-11-21T08:52:28;65.37;;;27.37;;
15202;SDS011;7702;51.046;5.184;2023-11-21T08:54:54;59.93;;;26.50;;
15202;SDS011;7702;51.046;5.184;2023-11-21T08:57:22;58.37;;;25.00;;
15202;SDS011;7702;51.046;5.184;2023-11-21T08:59:48;58.67;;;26.63;;
15202;SDS011;7702;51.046;5.184;2023-11-21T09:02:14;64.33;;;27.83;;
15202;SDS011;7702;51.046;5.184;2023-11-21T09:04:39;54.43;;;27.27;;
15202;SDS011;7702;51.046;5.184;2023-11-21T09:07:05;62.70;;;28.03;;
15202;SDS011;7702;51.046;5.184;2023-11-21T09:09:31;52.93;;;26.17;;
15202;SDS011;7702;51.046;5.184;2023-11-21T09:11:56;66.27;;;29.53;;
15202;SDS011;7702;51.046;5.184;2023-11-21T09:14:22;66.33;;;30.63;;
15202;SDS011;7702;51.046;5.184;2023-11-21T09:16:48;79.57;;;31.90;;
15202;SDS011;7702;51.046;5.184;2023-11-21T09:19:15;73.50;;;31.93;;
15202;SDS011;7702;51.046;5.184;2023-11-21T09:21:41;70.63;;;30.53;;
15202;SDS011;7702;51.046;5.184;2023-11-21T09:24:06;73.33;;;32.93;;
15202;SDS011;7702;51.046;5.184;2023-11-21T09:26:34;78.80;;;33.27;;
15202;SDS011;7702;51.046;5.184;2023-11-21T09:28:59;78.73;;;33.23;;
15202;SDS011;7702;51.046;5.184;2023-11-21T09:31:27;79.23;;;31.83;;
15202;SDS011;7702;51.046;5.184;2023-11-21T09:33:53;81.00;;;31.90;;
15202;SDS011;7702;51.046;5.184;2023-11-21T09:36:18;71.47;;;30.63;;
15202;SDS011;7702;51.046;5.184;2023-11-21T09:38:46;65.53;;;29.87;;
15202;SDS011;7702;51.046;5.184;2023-11-21T09:44:32;62.40;;;27.97;;
15202;SDS011;7702;51.046;5.184;2023-11-21T09:47:02;62.77;;;26.40;;
15202;SDS011;7702;51.046;5.184;2023-11-21T09:49:28;59.47;;;26.60;;
15202;SDS011;7702;51.046;5.184;2023-11-21T09:52:00;57.00;;;26.43;;
15202;SDS011;7702;51.046;5.184;2023-11-21T09:54:28;61.70;;;28.47;;
15202;SDS011;7702;51.046;5.184;2023-11-21T09:56:57;58.07;;;27.30;;
15202;SDS011;7702;51.046;5.184;2023-11-21T09:59:24;57.37;;;27.23;;
15202;SDS011;7702;51.046;5.184;2023-11-21T10:01:55;58.67;;;26.80;;
15202;SDS011;7702;51.046;5.184;2023-11-21T10:04:23;59.23;;;26.67;;
15202;SDS011;7702;51.046;5.184;2023-11-21T10:06:49;55.50;;;25.23;;
15202;SDS011;7702;51.046;5.184;2023-11-21T10:09:16;50.20;;;25.47;;
15202;SDS011;7702;51.046;5.184;2023-11-21T10:11:45;52.97;;;25.63;;
15202;SDS011;7702;51.046;5.184;2023-11-21T10:14:12;55.90;;;26.83;;
15202;SDS011;7702;51.046;5.184;2023-11-21T10:16:40;54.60;;;24.90;;
15202;SDS011;7702;51.046;5.184;2023-11-21T10:19:09;55.37;;;26.50;;
15202;SDS011;7702;51.046;5.184;2023-11-21T10:21:35;60.13;;;29.33;;
15202;SDS011;7702;51.046;5.184;2023-11-21T10:24:03;49.97;;;25.03;;
15202;SDS011;7702;51.046;5.184;2023-11-21T10:26:29;48.97;;;25.60;;
15202;SDS011;7702;51.046;5.184;2023-11-21T10:29:01;52.07;;;25.87;;
15202;SDS011;7702;51.046;5.184;2023-11-21T10:31:30;56.33;;;26.17;;
15202;SDS011;7702;51.046;5.184;2023-11-21T10:34:15;56.60;;;26.87;;
15202;SDS011;7702;51.046;5.184;2023-11-21T10:36:42;61.17;;;28.10;;
15202;SDS011;7702;51.046;5.184;2023-11-21T10:39:08;59.50;;;28.07;;
15202;SDS011;7702;51.046;5.184;2023-11-21T10:41:37;68.00;;;29.90;;
15202;SDS011;7702;51.046;5.184;2023-11-21T10:44:03;54.50;;;26.40;;
15202;SDS011;7702;51.046;5.184;2023-11-21T10:46:32;55.80;;;25.97;;
15202;SDS011;7702;51.046;5.184;2023-11-21T10:48:58;57.07;;;27.83;;
15202;SDS011;7702;51.046;5.184;2023-11-21T10:51:24;48.93;;;25.93;;
15202;SDS011;7702;51.046;5.184;2023-11-21T10:53:51;49.10;;;25.50;;
15202;SDS011;7702;51.046;5.184;2023-11-21T10:56:18;49.90;;;24.50;;
15202;SDS011;7702;51.046;5.184;2023-11-21T10:58:46;47.53;;;25.07;;
15202;SDS011;7702;51.046;5.184;2023-11-21T11:01:18;52.90;;;25.50;;
15202;SDS011;7702;51.046;5.184;2023-11-21T11:03:46;42.87;;;23.13;;
15202;SDS011;7702;51.046;5.184;2023-11-21T11:06:13;41.90;;;23.50;;
15202;SDS011;7702;51.046;5.184;2023-11-21T11:08:40;44.93;;;23.67;;
15202;SDS011;7702;51.046;5.184;2023-11-21T11:11:06;49.47;;;23.97;;
15202;SDS011;7702;51.046;5.184;2023-11-21T11:13:32;44.23;;;22.23;;
15202;SDS011;7702;51.046;5.184;2023-11-21T11:15:59;42.37;;;22.33;;
15202;SDS011;7702;51.046;5.184;2023-11-21T11:18:27;43.73;;;21.10;;
15202;SDS011;7702;51.046;5.184;2023-11-21T11:20:54;41.20;;;22.10;;
15202;SDS011;7702;51.046;5.184;2023-11-21T11:23:35;37.17;;;21.30;;
15202;SDS011;7702;51.046;5.184;2023-11-21T11:36:47;36.03;;;21.20;;
15202;SDS011;7702;51.046;5.184;2023-11-21T11:39:30;37.83;;;22.97;;
15202;SDS011;7702;51.046;5.184;2023-11-21T11:42:01;41.07;;;23.47;;
15202;SDS011;7702;51.046;5.184;2023-11-21T11:47:16;44.63;;;24.77;;
15202;SDS011;7702;51.046;5.184;2023-11-21T11:50:04;45.37;;;23.97;;
15202;SDS011;7702;51.046;5.184;2023-11-21T11:55:18;46.77;;;26.10;;
15202;SDS011;7702;51.046;5.184;2023-11-21T11:57:50;46.00;;;24.87;;
15202;SDS011;7702;51.046;5.184;2023-11-21T12:02:52;44.03;;;25.17;;
15202;SDS011;7702;51.046;5.184;2023-11-21T12:05:28;43.60;;;24.90;;
15202;SDS011;7702;51.046;5.184;2023-11-21T12:07:59;46.70;;;26.53;;
15202;SDS011;7702;51.046;5.184;2023-11-21T12:10:27;41.83;;;24.60;;
15202;SDS011;7702;51.046;5.184;2023-11-21T12:13:00;42.03;;;24.20;;
15202;SDS011;7702;51.046;5.184;2023-11-21T12:15:27;38.13;;;21.37;;
15202;SDS011;7702;51.046;5.184;2023-11-21T12:17:56;38.23;;;22.37;;
15202;SDS011;7702;51.046;5.184;2023-11-21T12:20:26;33.93;;;21.17;;
15202;SDS011;7702;51.046;5.184;2023-11-21T12:22:53;38.30;;;22.93;;
15202;SDS011;7702;51.046;5.184;2023-11-21T12:25:24;32.70;;;20.93;;
15202;SDS011;7702;51.046;5.184;2023-11-21T12:27:53;35.67;;;21.60;;
15202;SDS011;7702;51.046;5.184;2023-11-21T12:30:21;36.00;;;21.27;;
15202;SDS011;7702;51.046;5.184;2023-11-21T12:32:48;39.30;;;23.13;;
15202;SDS011;7702;51.046;5.184;2023-11-21T12:35:18;34.30;;;21.83;;
15202;SDS011;7702;51.046;5.184;2023-11-21T12:37:46;33.37;;;20.67;;
15202;SDS011;7702;51.046;5.184;2023-11-21T12:40:12;36.83;;;20.73;;
15202;SDS011;7702;51.046;5.184;2023-11-21T12:42:43;31.30;;;19.67;;
15202;SDS011;7702;51.046;5.184;2023-11-21T12:47:53;29.30;;;19.50;;
15202;SDS011;7702;51.046;5.184;2023-11-21T12:50:21;29.73;;;19.83;;
15202;SDS011;7702;51.046;5.184;2023-11-21T12:52:53;29.23;;;19.63;;
15202;SDS011;7702;51.046;5.184;2023-11-21T12:55:23;28.00;;;18.47;;
15202;SDS011;7702;51.046;5.184;2023-11-21T12:57:49;30.37;;;19.30;;
15202;SDS011;7702;51.046;5.184;2023-11-21T13:00:16;26.23;;;18.07;;
15202;SDS011;7702;51.046;5.184;2023-11-21T13:02:53;23.97;;;17.17;;
15202;SDS011;7702;51.046;5.184;2023-11-21T13:05:24;28.10;;;17.60;;
15202;SDS011;7702;51.046;5.184;2023-11-21T13:07:50;24.23;;;17.33;;
15202;SDS011;7702;51.046;5.184;2023-11-21T13:10:19;29.33;;;19.73;;
15202;SDS011;7702;51.046;5.184;2023-11-21T13:12:52;27.03;;;18.27;;
15202;SDS011;7702;51.046;5.184;2023-11-21T13:15:19;24.50;;;18.03;;
15202;SDS011;7702;51.046;5.184;2023-11-21T13:17:45;26.47;;;18.13;;
15202;SDS011;7702;51.046;5.184;2023-11-21T13:20:11;22.87;;;17.60;;
15202;SDS011;7702;51.046;5.184;2023-11-21T13:23:07;24.83;;;16.77;;
15202;SDS011;7702;51.046;5.184;2023-11-21T13:25:36;23.73;;;17.77;;
15202;SDS011;7702;51.046;5.184;2023-11-21T13:28:04;24.23;;;17.53;;
15202;SDS011;7702;51.046;5.184;2023-11-21T13:30:30;24.97;;;18.20;;
15202;SDS011;7702;51.046;5.184;2023-11-21T13:32:59;37.13;;;27.13;;
15202;SDS011;7702;51.046;5.184;2023-11-21T13:35:39;28.93;;;20.77;;
15202;SDS011;7702;51.046;5.184;2023-11-21T13:38:08;40.50;;;25.20;;
15202;SDS011;7702;51.046;5.184;2023-11-21T13:40:37;23.03;;;16.83;;
15202;SDS011;7702;51.046;5.184;2023-11-21T13:43:18;22.97;;;15.67;;
15202;SDS011;7702;51.046;5.184;2023-11-21T13:45:47;23.70;;;16.97;;
15202;SDS011;7702;51.046;5.184;2023-11-21T13:48:16;19.07;;;15.20;;
15202;SDS011;7702;51.046;5.184;2023-11-21T13:50:50;21.67;;;15.70;;
15202;SDS011;7702;51.046;5.184;2023-11-21T13:53:48;27.43;;;17.13;;
15202;SDS011;7702;51.046;5.184;2023-11-21T13:56:18;19.03;;;16.13;;
15202;SDS011;7702;51.046;5.184;2023-11-21T13:58:51;23.50;;;18.93;;
15202;SDS011;7702;51.046;5.184;2023-11-21T14:01:17;20.57;;;16.20;;
15202;SDS011;7702;51.046;5.184;2023-11-21T14:03:56;39.90;;;35.83;;
15202;SDS011;7702;51.046;5.184;2023-11-21T14:06:27;48.50;;;43.90;;
15202;SDS011;7702;51.046;5.184;2023-11-21T14:08:59;23.03;;;19.83;;
15202;SDS011;7702;51.046;5.184;2023-11-21T14:11:30;129.70;;;91.67;;
15202;SDS011;7702;51.046;5.184;2023-11-21T14:13:56;44.43;;;38.13;;
15202;SDS011;7702;51.046;5.184;2023-11-21T14:16:24;36.53;;;32.30;;
15202;SDS011;7702;51.046;5.184;2023-11-21T14:18:51;24.10;;;21.40;;
15202;SDS011;7702;51.046;5.184;2023-11-21T14:21:28;19.33;;;15.00;;
15202;SDS011;7702;51.046;5.184;2023-11-21T14:23:54;19.47;;;15.93;;
15202;SDS011;7702;51.046;5.184;2023-11-21T14:26:20;17.70;;;13.70;;
15202;SDS011;7702;51.046;5.184;2023-11-21T14:28:46;21.73;;;15.50;;
15202;SDS011;7702;51.046;5.184;2023-11-21T14:31:14;21.03;;;15.03;;
15202;SDS011;7702;51.046;5.184;2023-11-21T14:33:42;19.13;;;14.13;;
15202;SDS011;7702;51.046;5.184;2023-11-21T14:36:09;18.07;;;12.83;;
15202;SDS011;7702;51.046;5.184;2023-11-21T14:38:35;17.50;;;12.83;;
15202;SDS011;7702;51.046;5.184;2023-11-21T14:41:03;15.10;;;11.20;;
15202;SDS011;7702;51.046;5.184;2023-11-21T14:43:29;16.13;;;12.03;;
15202;SDS011;7702;51.046;5.184;2023-11-21T14:45:59;16.43;;;11.87;;
15202;SDS011;7702;51.046;5.184;2023-11-21T14:48:25;16.03;;;11.27;;
15202;SDS011;7702;51.046;5.184;2023-11-21T14:51:07;15.63;;;11.17;;
15202;SDS011;7702;51.046;5.184;2023-11-21T14:53:52;14.67;;;11.07;;
15202;SDS011;7702;51.046;5.184;2023-11-21T14:56:25;16.90;;;11.13;;
15202;SDS011;7702;51.046;5.184;2023-11-21T14:58:55;15.63;;;11.27;;
15202;SDS011;7702;51.046;5.184;2023-11-21T15:01:23;16.03;;;10.27;;
15202;SDS011;7702;51.046;5.184;2023-11-21T15:04:07;14.20;;;11.00;;
15202;SDS011;7702;51.046;5.184;2023-11-21T15:06:39;14.77;;;11.00;;
15202;SDS011;7702;51.046;5.184;2023-11-21T15:09:07;13.90;;;10.33;;
15202;SDS011;7702;51.046;5.184;2023-11-21T15:11:53;15.63;;;12.40;;
15202;SDS011;7702;51.046;5.184;2023-11-21T15:14:23;17.53;;;13.63;;
15202;SDS011;7702;51.046;5.184;2023-11-21T15:16:51;17.67;;;11.80;;
15202;SDS011;7702;51.046;5.184;2023-11-21T15:19:18;17.57;;;12.47;;
15202;SDS011;7702;51.046;5.184;2023-11-21T15:21:50;15.57;;;12.33;;
15202;SDS011;7702;51.046;5.184;2023-11-21T15:24:15;15.73;;;11.23;;
15202;SDS011;7702;51.046;5.184;2023-11-21T15:26:41;19.43;;;12.33;;
15202;SDS011;7702;51.046;5.184;2023-11-21T15:29:07;17.87;;;12.40;;
15202;SDS011;7702;51.046;5.184;2023-11-21T15:31:33;17.83;;;13.80;;
15202;SDS011;7702;51.046;5.184;2023-11-21T15:34:01;18.57;;;13.50;;
15202;SDS011;7702;51.046;5.184;2023-11-21T15:36:30;19.23;;;12.90;;